createdAt,value
2022-10-21T00:02:41.027Z,1.30
2022-10-21T00:05:36.158Z,1.30
2022-10-21T00:08:30.277Z,1.40
2022-10-21T00:11:24.293Z,1.50
2022-10-21T00:14:17.768Z,1.38
2022-10-21T00:17:10.388Z,1.40
2022-10-21T00:20:04.743Z,1.33
2022-10-21T00:22:59.143Z,1.50
2022-10-21T00:25:57.234Z,1.23
2022-10-21T00:28:55.146Z,1.00
2022-10-21T00:31:48.659Z,0.90
2022-10-21T00:34:43.324Z,1.38
2022-10-21T00:37:36.768Z,1.40
2022-10-21T00:40:31.585Z,1.60
2022-10-21T00:43:25.455Z,1.02
2022-10-21T00:46:19.462Z,1.40
2022-10-21T00:49:18.604Z,1.40
2022-10-21T00:52:15.868Z,1.40
2022-10-21T00:55:09.382Z,1.70
2022-10-21T00:58:05.444Z,1.05
2022-10-21T01:01:00.401Z,1.38
2022-10-21T01:03:54.399Z,1.33
2022-10-21T01:06:48.452Z,1.42
2022-10-21T01:09:42.357Z,1.20
2022-10-21T01:12:45.267Z,1.15
2022-10-21T01:15:45.025Z,1.30
2022-10-21T01:18:47.399Z,1.60
2022-10-21T01:21:44.944Z,1.35
2022-10-21T01:24:55.630Z,1.10
2022-10-21T01:27:55.092Z,1.40
2022-10-21T01:30:54.440Z,1.30
2022-10-21T01:33:53.627Z,1.05
2022-10-21T01:36:55.190Z,1.20
2022-10-21T01:39:53.252Z,1.10
2022-10-21T01:42:53.538Z,1.20
2022-10-21T01:45:54.844Z,1.60
2022-10-21T01:48:53.630Z,1.10
2022-10-21T01:51:47.267Z,1.10
2022-10-21T01:54:43.690Z,1.10
2022-10-21T01:57:41.472Z,1.27
2022-10-21T02:00:37.488Z,1.27
2022-10-21T02:03:36.331Z,1.20
2022-10-21T02:06:30.179Z,1.27
2022-10-21T02:09:23.086Z,1.27
2022-10-21T02:12:17.843Z,1.10
2022-10-21T02:15:13.243Z,1.35
2022-10-21T02:18:09.244Z,1.48
2022-10-21T02:21:07.324Z,1.00
2022-10-21T02:24:06.267Z,1.15
2022-10-21T02:27:00.530Z,1.50
2022-10-21T02:29:58.628Z,1.05
2022-10-21T02:32:57.414Z,1.08
2022-10-21T02:36:02.082Z,1.20
2022-10-21T02:39:02.048Z,1.45
2022-10-21T02:41:56.904Z,1.27
2022-10-21T02:44:50.360Z,1.17
2022-10-21T02:47:44.683Z,1.48
2022-10-21T02:50:38.024Z,1.13
2022-10-21T02:53:30.832Z,1.30
2022-10-21T02:56:25.606Z,0.98
2022-10-21T02:59:18.824Z,1.08
2022-10-21T03:02:11.702Z,1.10
2022-10-21T03:05:05.819Z,1.20
2022-10-21T03:07:59.351Z,1.40
2022-10-21T03:10:53.799Z,1.33
2022-10-21T03:13:48.228Z,1.05
2022-10-21T03:16:40.791Z,1.38
2022-10-21T03:19:33.475Z,1.00
2022-10-21T03:22:26.772Z,1.40
2022-10-21T03:25:20.116Z,1.30
2022-10-21T03:28:13.249Z,1.25
2022-10-21T03:31:07.492Z,1.20
2022-10-21T03:34:01.043Z,1.45
2022-10-21T03:36:54.223Z,1.23
2022-10-21T03:39:47.130Z,1.20
2022-10-21T03:42:40.409Z,1.30
2022-10-21T03:45:33.798Z,1.00
2022-10-21T03:48:29.278Z,1.20
2022-10-21T03:51:22.209Z,0.93
2022-10-21T03:54:15.223Z,1.30
2022-10-21T03:57:08.018Z,1.20
2022-10-21T04:00:00.796Z,1.30
2022-10-21T04:02:53.705Z,1.20
2022-10-21T04:05:48.247Z,1.20
2022-10-21T04:08:41.090Z,1.10
2022-10-21T04:11:34.034Z,1.00
2022-10-21T04:14:27.275Z,1.05
2022-10-21T04:17:19.800Z,1.20
2022-10-21T04:20:13.196Z,1.15
2022-10-21T04:23:07.332Z,1.20
2022-10-21T04:26:02.035Z,1.10
2022-10-21T04:28:55.104Z,1.25
2022-10-21T04:31:48.233Z,1.08
2022-10-21T04:34:41.503Z,1.45
2022-10-21T04:37:35.145Z,1.45
2022-10-21T04:40:29.686Z,1.30
2022-10-21T04:43:23.029Z,1.13
2022-10-21T04:46:17.258Z,1.30
2022-10-21T04:49:09.712Z,1.20
2022-10-21T04:52:03.110Z,1.05
2022-10-21T04:54:55.994Z,1.13
2022-10-21T04:57:50.541Z,1.27
2022-10-21T05:00:44.209Z,1.00
2022-10-21T05:03:36.998Z,1.05
2022-10-21T05:06:30.164Z,1.17
2022-10-21T05:09:23.428Z,1.13
2022-10-21T05:12:16.976Z,1.30
2022-10-21T05:15:13.177Z,1.42
2022-10-21T05:18:06.020Z,1.20
2022-10-21T05:21:00.141Z,1.20
2022-10-21T05:23:53.037Z,1.17
2022-10-21T05:26:46.086Z,1.30
2022-10-21T05:29:38.709Z,1.08
2022-10-21T05:32:33.013Z,0.90
2022-10-21T05:35:25.983Z,1.17
2022-10-21T05:38:19.159Z,1.17
2022-10-21T05:41:12.278Z,0.85
2022-10-21T05:44:05.606Z,1.13
2022-10-21T05:46:58.732Z,1.00
2022-10-21T05:49:53.567Z,1.00
2022-10-21T05:52:46.991Z,0.90
2022-10-21T05:55:40.503Z,1.08
2022-10-21T05:58:35.742Z,1.17
2022-10-21T06:01:29.175Z,1.55
2022-10-21T06:04:21.748Z,1.08
2022-10-21T06:07:16.797Z,1.10
2022-10-21T06:10:12.071Z,1.08
2022-10-21T06:13:05.480Z,1.13
2022-10-21T06:15:59.389Z,0.93
2022-10-21T06:18:53.378Z,1.30
2022-10-21T06:21:47.044Z,1.08
2022-10-21T06:24:41.683Z,1.27
2022-10-21T06:27:37.887Z,1.10
2022-10-21T06:30:31.042Z,1.10
2022-10-21T06:33:26.856Z,1.10
2022-10-21T06:36:21.441Z,0.98
2022-10-21T06:39:14.047Z,1.25
2022-10-21T06:42:08.608Z,1.10
2022-10-21T06:45:02.106Z,1.20
2022-10-21T06:47:55.120Z,0.90
2022-10-21T06:50:48.049Z,1.30
2022-10-21T06:53:41.398Z,1.10
2022-10-21T06:56:33.900Z,1.20
2022-10-21T06:59:28.084Z,3.45
2022-10-21T07:02:21.200Z,4.05
2022-10-21T07:05:14.832Z,7.90
2022-10-21T07:08:10.596Z,8.82
2022-10-21T07:11:06.713Z,8.32
2022-10-21T07:14:01.684Z,7.22
2022-10-21T07:16:56.248Z,6.78
2022-10-21T07:19:49.391Z,6.45
2022-10-21T07:22:41.868Z,6.90
2022-10-21T07:25:34.779Z,5.97
2022-10-21T07:28:27.782Z,5.70
2022-10-21T07:31:22.512Z,6.45
2022-10-21T07:34:18.107Z,5.78
2022-10-21T07:37:11.207Z,6.10
2022-10-21T07:40:05.720Z,5.72
2022-10-21T07:42:59.537Z,4.90
2022-10-21T07:45:53.758Z,5.88
2022-10-21T07:48:47.125Z,5.05
2022-10-21T07:51:42.511Z,6.00
2022-10-21T07:54:36.024Z,4.97
2022-10-21T07:57:29.195Z,5.05
2022-10-21T08:00:22.963Z,5.00
2022-10-21T08:03:16.527Z,4.07
2022-10-21T08:06:12.660Z,4.28
2022-10-21T08:09:07.871Z,4.10
2022-10-21T08:12:00.869Z,4.60
2022-10-21T08:14:53.896Z,4.40
2022-10-21T08:17:47.226Z,4.00
2022-10-21T08:20:41.104Z,3.75
2022-10-21T08:23:34.390Z,3.83
2022-10-21T08:26:28.546Z,4.05
2022-10-21T08:29:22.285Z,4.35
2022-10-21T08:32:15.482Z,3.95
2022-10-21T08:35:08.879Z,3.80
2022-10-21T08:38:03.102Z,3.67
2022-10-21T08:40:56.326Z,3.63
2022-10-21T08:43:52.957Z,3.20
2022-10-21T08:46:51.841Z,3.55
2022-10-21T08:49:56.897Z,3.45
2022-10-21T08:52:54.246Z,3.33
2022-10-21T08:55:47.384Z,3.00
2022-10-21T08:58:40.291Z,3.10
2022-10-21T09:01:42.539Z,3.40
2022-10-21T09:04:44.898Z,3.60
2022-10-21T09:07:48.276Z,3.00
2022-10-21T09:10:54.248Z,3.28
2022-10-21T09:14:05.932Z,3.42
2022-10-21T09:17:18.219Z,3.28
2022-10-21T09:20:20.303Z,3.05
2022-10-21T09:23:35.033Z,3.20
2022-10-21T09:26:37.433Z,3.00
2022-10-21T09:29:33.476Z,3.25
2022-10-21T09:32:32.550Z,2.97
2022-10-21T09:35:32.606Z,2.80
2022-10-21T09:38:29.943Z,3.10
2022-10-21T09:41:25.644Z,3.42
2022-10-21T09:44:22.558Z,3.30
2022-10-21T09:47:21.345Z,3.30
2022-10-21T09:50:18.060Z,2.67
2022-10-21T09:53:22.595Z,2.88
2022-10-21T09:56:21.209Z,3.33
2022-10-21T09:59:17.713Z,2.85
2022-10-21T10:02:16.589Z,3.28
2022-10-21T10:05:38.236Z,3.05
2022-10-21T10:08:35.330Z,2.53
2022-10-21T10:11:28.357Z,3.05
2022-10-21T10:14:33.980Z,2.78
2022-10-21T10:17:30.049Z,2.38
2022-10-21T10:20:23.454Z,2.40
2022-10-21T10:23:20.420Z,2.75
2022-10-21T10:26:19.598Z,3.22
2022-10-21T10:29:24.513Z,2.83
2022-10-21T10:32:18.210Z,2.70
2022-10-21T10:35:23.304Z,3.03
2022-10-21T10:38:24.361Z,2.83
2022-10-21T10:41:18.612Z,2.45
2022-10-21T10:44:19.690Z,2.85
2022-10-21T10:47:21.694Z,2.70
2022-10-21T10:50:46.792Z,2.70
2022-10-21T10:53:41.524Z,2.55
2022-10-21T10:56:38.921Z,2.70
2022-10-21T10:59:36.727Z,2.40
2022-10-21T11:02:39.039Z,2.53
2022-10-21T11:05:36.967Z,2.17
2022-10-21T11:08:37.242Z,2.40
2022-10-21T11:11:36.345Z,2.78
2022-10-21T11:14:29.290Z,2.47
2022-10-21T11:17:26.392Z,2.00
2022-10-21T11:20:28.946Z,2.50
2022-10-21T11:23:43.648Z,2.90
2022-10-21T11:26:46.736Z,2.63
2022-10-21T11:29:46.491Z,2.60
2022-10-21T11:32:54.483Z,2.35
2022-10-21T11:35:57.708Z,2.58
2022-10-21T11:39:23.585Z,2.70
2022-10-21T11:42:24.445Z,2.83
2022-10-21T11:45:34.267Z,2.75
2022-10-21T11:48:41.087Z,2.60
2022-10-21T11:51:41.033Z,2.30
2022-10-21T11:55:08.846Z,2.40
2022-10-21T11:58:14.745Z,1.83
2022-10-21T12:01:23.793Z,2.63
2022-10-21T12:04:26.004Z,2.70
2022-10-21T12:07:32.673Z,2.20
2022-10-21T12:10:31.435Z,2.63
2022-10-21T12:13:28.951Z,2.38
2022-10-21T12:16:27.761Z,2.25
2022-10-21T12:19:23.877Z,2.53
2022-10-21T12:22:17.751Z,2.20
2022-10-21T12:25:23.800Z,2.35
2022-10-21T12:28:21.910Z,2.10
2022-10-21T12:31:30.080Z,1.77
2022-10-21T12:34:25.415Z,2.22
2022-10-21T12:38:06.223Z,2.30
2022-10-21T12:41:26.883Z,1.95
2022-10-21T12:44:28.788Z,2.30
2022-10-21T12:47:27.020Z,1.95
2022-10-21T12:50:28.726Z,2.40
2022-10-21T12:53:32.897Z,2.13
2022-10-21T12:56:30.274Z,2.25
2022-10-21T12:59:29.310Z,2.08
2022-10-21T13:02:28.105Z,2.28
2022-10-21T13:06:06.299Z,2.40
2022-10-21T13:09:02.033Z,2.17
2022-10-21T13:12:05.645Z,2.40
2022-10-21T13:14:59.608Z,2.65
2022-10-21T13:17:55.910Z,1.98
2022-10-21T13:20:58.193Z,2.20
2022-10-21T13:23:54.605Z,2.20
2022-10-21T13:26:50.842Z,1.67
2022-10-21T13:29:47.819Z,1.88
2022-10-21T13:32:42.340Z,2.35
2022-10-21T13:35:46.335Z,2.30
2022-10-21T13:38:48.979Z,2.20
2022-10-21T13:41:44.080Z,1.90
2022-10-21T13:44:40.463Z,2.05
2022-10-21T13:47:35.843Z,2.28
2022-10-21T13:50:33.512Z,2.10
2022-10-21T13:53:30.289Z,1.80
2022-10-21T13:56:25.435Z,2.08
2022-10-21T13:59:24.766Z,1.73
2022-10-21T14:02:25.280Z,2.33
2022-10-21T14:05:31.119Z,1.67
2022-10-21T14:08:29.404Z,1.92
2022-10-21T14:11:27.346Z,1.92
2022-10-21T14:14:24.873Z,2.05
2022-10-21T14:17:21.860Z,1.90
2022-10-21T14:20:18.227Z,2.03
2022-10-21T14:23:21.121Z,2.05
2022-10-21T14:26:16.028Z,1.70
2022-10-21T14:29:11.344Z,2.08
2022-10-21T14:32:05.249Z,2.33
2022-10-21T14:35:04.086Z,2.05
2022-10-21T14:37:59.630Z,1.80
2022-10-21T14:41:00.110Z,1.80
2022-10-21T14:43:56.686Z,1.90
2022-10-21T14:46:52.079Z,1.70
2022-10-21T14:49:48.438Z,1.88
2022-10-21T14:52:43.419Z,1.80
2022-10-21T14:55:40.508Z,1.65
2022-10-21T14:58:36.292Z,1.70
2022-10-21T15:01:31.719Z,1.80
2022-10-21T15:04:44.122Z,1.85
2022-10-21T15:07:39.017Z,1.60
2022-10-21T15:10:33.838Z,1.77
2022-10-21T15:13:27.760Z,1.65
2022-10-21T15:16:21.689Z,1.60
2022-10-21T15:19:18.593Z,2.08
2022-10-21T15:22:25.828Z,1.70
2022-10-21T15:25:20.092Z,1.55
2022-10-21T15:28:18.908Z,1.83
2022-10-21T15:31:17.515Z,1.70
2022-10-21T15:34:16.111Z,1.52
2022-10-21T15:37:10.613Z,1.65
2022-10-21T15:40:04.277Z,1.80
2022-10-21T15:42:57.259Z,1.92
2022-10-21T15:45:50.628Z,1.40
2022-10-21T15:48:43.496Z,2.03
2022-10-21T15:51:37.935Z,1.48
2022-10-21T15:54:31.813Z,1.73
2022-10-21T15:57:24.874Z,1.25
2022-10-21T16:00:19.951Z,1.50
2022-10-21T16:03:14.456Z,1.40
2022-10-21T16:06:07.513Z,1.65
2022-10-21T16:09:01.974Z,1.77
2022-10-21T16:12:00.043Z,1.95
2022-10-21T16:14:55.628Z,1.50
2022-10-21T16:17:50.528Z,1.77
2022-10-21T16:20:44.701Z,1.60
2022-10-21T16:23:37.459Z,1.33
2022-10-21T16:26:33.204Z,1.48
2022-10-21T16:29:26.766Z,1.90
2022-10-21T16:32:19.597Z,1.52
2022-10-21T16:35:13.241Z,1.50
2022-10-21T16:38:06.882Z,1.40
2022-10-21T16:41:00.581Z,1.77
2022-10-21T16:43:55.518Z,1.95
2022-10-21T16:46:51.524Z,1.60
2022-10-21T16:49:44.745Z,1.90
2022-10-21T16:52:38.083Z,1.55
2022-10-21T16:55:31.541Z,1.70
2022-10-21T16:58:24.589Z,1.58
2022-10-21T17:01:21.399Z,1.60
2022-10-21T17:04:15.505Z,1.25
2022-10-21T17:07:08.594Z,1.42
2022-10-21T17:10:02.053Z,1.48
2022-10-21T17:12:58.891Z,1.63
2022-10-21T17:15:52.225Z,1.95
2022-10-21T17:18:46.735Z,1.63
2022-10-21T17:21:39.381Z,1.60
2022-10-21T17:24:32.831Z,1.85
2022-10-21T17:27:25.727Z,2.20
2022-10-21T17:30:18.514Z,1.60
2022-10-21T17:33:14.218Z,2.35
2022-10-21T17:36:09.498Z,2.05
2022-10-21T17:39:02.795Z,2.22
2022-10-21T17:41:56.177Z,2.42
2022-10-21T17:44:49.650Z,2.13
2022-10-21T17:47:43.480Z,2.35
2022-10-21T17:50:38.505Z,2.30
2022-10-21T17:53:33.259Z,2.35
2022-10-21T17:56:26.767Z,2.42
2022-10-21T17:59:19.553Z,2.20
2022-10-21T18:02:12.617Z,2.53
2022-10-21T18:05:07.777Z,2.42
2022-10-21T18:08:00.348Z,2.85
2022-10-21T18:10:56.138Z,2.63
2022-10-21T18:13:53.632Z,2.40
2022-10-21T18:16:48.683Z,2.53
2022-10-21T18:19:41.729Z,2.65
2022-10-21T18:22:34.903Z,2.33
2022-10-21T18:25:27.612Z,2.30
2022-10-21T18:28:22.212Z,2.75
2022-10-21T18:31:15.705Z,2.20
2022-10-21T18:34:09.622Z,2.70
2022-10-21T18:37:02.553Z,2.72
2022-10-21T18:39:58.901Z,2.10
2022-10-21T18:42:52.437Z,1.95
2022-10-21T18:45:47.330Z,2.40
2022-10-21T18:48:40.565Z,2.45
2022-10-21T18:51:34.003Z,2.60
2022-10-21T18:54:26.595Z,2.38
2022-10-21T18:57:19.811Z,2.60
2022-10-21T19:00:13.068Z,2.15
2022-10-21T19:03:07.840Z,2.58
2022-10-21T19:06:15.669Z,2.83
2022-10-21T19:09:13.091Z,2.60
2022-10-21T19:12:10.546Z,2.55
2022-10-21T19:15:07.823Z,2.38
2022-10-21T19:18:00.569Z,2.38
2022-10-21T19:20:55.777Z,2.40
2022-10-21T19:23:48.651Z,2.03
2022-10-21T19:26:43.905Z,2.15
2022-10-21T19:29:36.700Z,2.25
2022-10-21T19:32:29.750Z,2.50
2022-10-21T19:35:22.715Z,2.42
2022-10-21T19:38:26.227Z,1.80
2022-10-21T19:41:33.685Z,2.10
2022-10-21T19:44:26.565Z,2.13
2022-10-21T19:47:19.864Z,2.20
2022-10-21T19:50:13.709Z,1.92
2022-10-21T19:53:06.744Z,2.00
2022-10-21T19:56:04.400Z,1.90
2022-10-21T19:58:57.683Z,1.92
2022-10-21T20:01:50.426Z,2.08
2022-10-21T20:04:43.778Z,2.10
2022-10-21T20:07:37.239Z,2.50
2022-10-21T20:10:31.656Z,2.22
2022-10-21T20:13:26.541Z,1.95
2022-10-21T20:16:21.695Z,2.35
2022-10-21T20:19:14.709Z,1.90
2022-10-21T20:22:07.704Z,2.20
2022-10-21T20:25:02.125Z,2.47
2022-10-21T20:27:55.878Z,1.58
2022-10-21T20:30:57.969Z,1.90
2022-10-21T20:33:52.293Z,2.00
2022-10-21T20:36:45.944Z,2.15
2022-10-21T20:39:38.893Z,2.20
2022-10-21T20:42:32.223Z,1.98
2022-10-21T20:45:25.789Z,1.92
2022-10-21T20:48:20.121Z,1.85
2022-10-21T20:51:15.937Z,1.98
2022-10-21T20:54:11.980Z,2.03
2022-10-21T20:57:05.595Z,2.03
2022-10-21T20:59:58.748Z,1.98
2022-10-21T21:02:51.975Z,1.60
2022-10-21T21:05:46.534Z,2.05
2022-10-21T21:08:48.764Z,2.20
2022-10-21T21:11:42.940Z,1.48
2022-10-21T21:14:35.911Z,1.80
2022-10-21T21:17:28.799Z,1.80
2022-10-21T21:20:21.863Z,3.00
2022-10-21T21:23:16.103Z,3.08
2022-10-21T21:26:10.437Z,2.42
2022-10-21T21:29:06.715Z,2.65
2022-10-21T21:31:59.549Z,2.88
2022-10-21T21:34:55.286Z,3.70
2022-10-21T21:37:48.563Z,3.30
2022-10-21T21:40:45.185Z,3.17
2022-10-21T21:43:41.336Z,3.28
2022-10-21T21:46:35.157Z,3.00
2022-10-21T21:49:29.124Z,3.13
2022-10-21T21:52:22.671Z,3.00
2022-10-21T21:55:16.009Z,3.35
2022-10-21T21:58:10.666Z,3.28
2022-10-21T22:01:10.856Z,3.30
2022-10-21T22:04:04.555Z,3.35
2022-10-21T22:07:01.909Z,2.90
2022-10-21T22:09:56.149Z,3.42
2022-10-21T22:12:48.579Z,3.10
2022-10-21T22:15:48.162Z,3.05
2022-10-21T22:18:41.949Z,3.55
2022-10-21T22:21:34.588Z,3.10
2022-10-21T22:24:27.928Z,3.22
2022-10-21T22:27:21.057Z,3.45
2022-10-21T22:30:15.892Z,3.30
2022-10-21T22:33:10.559Z,3.20
2022-10-21T22:36:05.563Z,3.75
2022-10-21T22:38:59.645Z,3.05
2022-10-21T22:41:52.656Z,3.42
2022-10-21T22:44:46.081Z,3.00
2022-10-21T22:47:39.953Z,3.13
2022-10-21T22:50:34.188Z,2.85
2022-10-21T22:53:27.830Z,2.85
2022-10-21T22:56:21.084Z,3.05
2022-10-21T22:59:13.972Z,3.15
2022-10-21T23:02:07.150Z,2.75
2022-10-21T23:04:59.966Z,3.20
2022-10-21T23:07:54.757Z,3.15
2022-10-21T23:10:49.526Z,3.00
2022-10-21T23:13:56.127Z,2.53
2022-10-21T23:16:55.793Z,2.80
2022-10-21T23:19:49.134Z,2.92
2022-10-21T23:22:42.330Z,2.63
2022-10-21T23:25:37.770Z,2.58
2022-10-21T23:28:30.743Z,2.85
2022-10-21T23:31:23.706Z,2.75
2022-10-21T23:34:17.219Z,2.97
2022-10-21T23:37:10.413Z,2.30
2022-10-21T23:40:03.558Z,2.80
2022-10-21T23:42:58.400Z,2.63
2022-10-21T23:45:52.138Z,2.67
2022-10-21T23:48:45.111Z,2.67
2022-10-21T23:51:38.012Z,3.03
2022-10-21T23:54:31.610Z,3.05
2022-10-21T23:57:25.762Z,2.90
